SAZT/TDL METAR and TAF weather

Enter ICAO airport designator
Station Type Date Time Source
SAZT METAR 2019/05/16 13:25 UTC NOAA

SAZT 161325Z 35007KT CAVOK 09/08 Q1024


Station Type Date Time Source
SAZT Decoded METAR 2019/05/16 13:25 UTC NOAA

Tandil Aerodrome, Argentina (SAZT) 37-14S 059-15W 175M
May 16, 2019 - 09:25 AM EDT / 2019.05.16 1325 UTC
Wind: from the N (350 degrees) at 8 MPH (7 KT):0
Visibility: greater than 7 mile(s):0
Temperature: 48 F (9 C)
Dew Point: 46 F (8 C)
Relative Humidity: 93%
Pressure (altimeter): 30.24 in. Hg (1024 hPa)
ob: SAZT 161325Z 35007KT CAVOK 09/08 Q1024
cycle: 13

Station Type Date Time Source
SAZT TAF UTC NOAA

Error!

Example: see airport list